sensor_id;sensor_type;location;lat;lon;timestamp;temperature;humidity
18658;DHT22;9458;50.942;5.074;2024-03-22T00:01:52;12.80;99.90
18658;DHT22;9458;50.942;5.074;2024-03-22T00:04:19;12.60;99.90
18658;DHT22;9458;50.942;5.074;2024-03-22T00:06:47;12.80;99.90
18658;DHT22;9458;50.942;5.074;2024-03-22T00:09:15;12.80;99.90
18658;DHT22;9458;50.942;5.074;2024-03-22T00:11:44;12.80;99.90
18658;DHT22;9458;50.942;5.074;2024-03-22T00:14:11;12.80;99.90
18658;DHT22;9458;50.942;5.074;2024-03-22T00:16:37;12.80;99.90
18658;DHT22;9458;50.942;5.074;2024-03-22T00:19:05;12.80;99.90
18658;DHT22;9458;50.942;5.074;2024-03-22T00:21:31;12.70;99.90
18658;DHT22;9458;50.942;5.074;2024-03-22T00:23:58;12.60;99.90
18658;DHT22;9458;50.942;5.074;2024-03-22T00:26:25;12.80;99.90
18658;DHT22;9458;50.942;5.074;2024-03-22T00:28:54;12.90;99.90
18658;DHT22;9458;50.942;5.074;2024-03-22T00:31:20;12.60;99.90
18658;DHT22;9458;50.942;5.074;2024-03-22T00:33:47;13.00;99.90
18658;DHT22;9458;50.942;5.074;2024-03-22T00:36:13;13.10;99.90
18658;DHT22;9458;50.942;5.074;2024-03-22T00:38:40;13.10;99.90
18658;DHT22;9458;50.942;5.074;2024-03-22T00:41:06;13.20;99.90
18658;DHT22;9458;50.942;5.074;2024-03-22T00:43:34;13.10;99.90
18658;DHT22;9458;50.942;5.074;2024-03-22T00:46:01;13.20;99.90
18658;DHT22;9458;50.942;5.074;2024-03-22T00:48:30;13.10;99.90
18658;DHT22;9458;50.942;5.074;2024-03-22T00:50:56;13.00;99.90
18658;DHT22;9458;50.942;5.074;2024-03-22T00:53:23;13.10;99.90
18658;DHT22;9458;50.942;5.074;2024-03-22T00:55:50;13.10;99.90
18658;DHT22;9458;50.942;5.074;2024-03-22T00:58:19;13.00;99.90
18658;DHT22;9458;50.942;5.074;2024-03-22T01:00:46;12.90;99.90
18658;DHT22;9458;50.942;5.074;2024-03-22T01:03:15;13.00;99.90
18658;DHT22;9458;50.942;5.074;2024-03-22T01:05:41;12.90;99.90
18658;DHT22;9458;50.942;5.074;2024-03-22T01:08:08;12.90;99.90
18658;DHT22;9458;50.942;5.074;2024-03-22T01:10:34;12.90;99.90
18658;DHT22;9458;50.942;5.074;2024-03-22T01:13:01;12.80;99.90
18658;DHT22;9458;50.942;5.074;2024-03-22T01:15:27;12.80;99.90
18658;DHT22;9458;50.942;5.074;2024-03-22T01:17:54;12.80;99.90
18658;DHT22;9458;50.942;5.074;2024-03-22T01:20:22;12.90;99.90
18658;DHT22;9458;50.942;5.074;2024-03-22T01:22:50;12.10;99.90
18658;DHT22;9458;50.942;5.074;2024-03-22T01:25:16;12.90;99.90
18658;DHT22;9458;50.942;5.074;2024-03-22T01:27:43;12.80;99.90
18658;DHT22;9458;50.942;5.074;2024-03-22T01:30:10;12.80;99.90
18658;DHT22;9458;50.942;5.074;2024-03-22T01:32:37;12.80;99.90
18658;DHT22;9458;50.942;5.074;2024-03-22T01:35:05;12.80;99.90
18658;DHT22;9458;50.942;5.074;2024-03-22T01:37:34;12.80;99.90
18658;DHT22;9458;50.942;5.074;2024-03-22T01:40:00;12.80;99.90
18658;DHT22;9458;50.942;5.074;2024-03-22T01:42:29;12.80;99.90
18658;DHT22;9458;50.942;5.074;2024-03-22T01:44:55;12.80;99.90
18658;DHT22;9458;50.942;5.074;2024-03-22T01:47:22;12.90;99.90
18658;DHT22;9458;50.942;5.074;2024-03-22T01:49:50;12.80;99.90
18658;DHT22;9458;50.942;5.074;2024-03-22T01:52:18;12.80;99.90
18658;DHT22;9458;50.942;5.074;2024-03-22T01:54:47;12.90;99.90
18658;DHT22;9458;50.942;5.074;2024-03-22T01:57:14;12.50;99.90
18658;DHT22;9458;50.942;5.074;2024-03-22T01:59:41;12.90;99.90
18658;DHT22;9458;50.942;5.074;2024-03-22T02:02:09;12.80;99.90
18658;DHT22;9458;50.942;5.074;2024-03-22T02:04:37;13.00;99.90
18658;DHT22;9458;50.942;5.074;2024-03-22T02:07:06;13.00;99.90
18658;DHT22;9458;50.942;5.074;2024-03-22T02:09:33;13.00;99.90
18658;DHT22;9458;50.942;5.074;2024-03-22T02:12:02;13.00;99.90
18658;DHT22;9458;50.942;5.074;2024-03-22T02:14:32;12.90;99.90
18658;DHT22;9458;50.942;5.074;2024-03-22T02:16:59;12.90;99.90
18658;DHT22;9458;50.942;5.074;2024-03-22T02:19:26;12.90;99.90
18658;DHT22;9458;50.942;5.074;2024-03-22T02:21:53;12.80;99.90
18658;DHT22;9458;50.942;5.074;2024-03-22T02:24:20;12.60;99.90
18658;DHT22;9458;50.942;5.074;2024-03-22T02:26:47;12.70;99.90
18658;DHT22;9458;50.942;5.074;2024-03-22T02:29:13;12.60;99.90
18658;DHT22;9458;50.942;5.074;2024-03-22T02:31:40;12.60;99.90
18658;DHT22;9458;50.942;5.074;2024-03-22T02:34:06;12.60;99.90
18658;DHT22;9458;50.942;5.074;2024-03-22T02:36:34;12.50;99.90
18658;DHT22;9458;50.942;5.074;2024-03-22T02:39:02;12.50;99.90
18658;DHT22;9458;50.942;5.074;2024-03-22T02:41:34;12.40;99.90
18658;DHT22;9458;50.942;5.074;2024-03-22T02:44:02;12.50;99.90
18658;DHT22;9458;50.942;5.074;2024-03-22T02:46:29;12.50;99.90
18658;DHT22;9458;50.942;5.074;2024-03-22T02:48:55;12.40;99.90
18658;DHT22;9458;50.942;5.074;2024-03-22T02:51:22;12.50;99.90
18658;DHT22;9458;50.942;5.074;2024-03-22T02:53:49;12.50;99.90
18658;DHT22;9458;50.942;5.074;2024-03-22T02:56:17;12.50;99.90
18658;DHT22;9458;50.942;5.074;2024-03-22T02:58:45;12.50;99.90
18658;DHT22;9458;50.942;5.074;2024-03-22T03:01:12;12.50;99.90
18658;DHT22;9458;50.942;5.074;2024-03-22T03:03:38;12.50;99.90
18658;DHT22;9458;50.942;5.074;2024-03-22T03:06:05;12.50;99.90
18658;DHT22;9458;50.942;5.074;2024-03-22T03:08:31;12.40;99.90
18658;DHT22;9458;50.942;5.074;2024-03-22T03:10:58;12.30;99.90
18658;DHT22;9458;50.942;5.074;2024-03-22T03:13:25;12.30;99.90
18658;DHT22;9458;50.942;5.074;2024-03-22T03:15:53;12.40;99.90
18658;DHT22;9458;50.942;5.074;2024-03-22T03:18:19;12.40;99.90
18658;DHT22;9458;50.942;5.074;2024-03-22T03:20:46;12.40;99.90
18658;DHT22;9458;50.942;5.074;2024-03-22T03:23:12;12.40;99.90
18658;DHT22;9458;50.942;5.074;2024-03-22T03:25:40;12.40;99.90
18658;DHT22;9458;50.942;5.074;2024-03-22T03:28:06;12.30;99.90
18658;DHT22;9458;50.942;5.074;2024-03-22T03:30:33;12.30;99.90
18658;DHT22;9458;50.942;5.074;2024-03-22T03:33:01;12.30;99.90
18658;DHT22;9458;50.942;5.074;2024-03-22T03:35:28;12.40;99.90
18658;DHT22;9458;50.942;5.074;2024-03-22T03:37:55;12.40;99.90
18658;DHT22;9458;50.942;5.074;2024-03-22T03:40:22;12.40;99.90
18658;DHT22;9458;50.942;5.074;2024-03-22T03:42:50;12.40;99.90
18658;DHT22;9458;50.942;5.074;2024-03-22T03:45:17;12.40;99.90
18658;DHT22;9458;50.942;5.074;2024-03-22T03:47:43;12.30;99.90
18658;DHT22;9458;50.942;5.074;2024-03-22T03:50:12;12.40;99.90
18658;DHT22;9458;50.942;5.074;2024-03-22T03:52:38;12.50;99.90
18658;DHT22;9458;50.942;5.074;2024-03-22T03:55:05;12.40;99.90
18658;DHT22;9458;50.942;5.074;2024-03-22T03:57:32;12.30;99.90
18658;DHT22;9458;50.942;5.074;2024-03-22T03:59:59;12.20;99.90
18658;DHT22;9458;50.942;5.074;2024-03-22T04:02:25;12.30;99.90
18658;DHT22;9458;50.942;5.074;2024-03-22T04:04:52;12.30;99.90
18658;DHT22;9458;50.942;5.074;2024-03-22T04:07:20;12.30;99.90
18658;DHT22;9458;50.942;5.074;2024-03-22T04:09:47;12.40;99.90
18658;DHT22;9458;50.942;5.074;2024-03-22T04:12:14;12.40;99.90
18658;DHT22;9458;50.942;5.074;2024-03-22T04:14:41;12.40;99.90
18658;DHT22;9458;50.942;5.074;2024-03-22T04:17:07;12.40;99.90
18658;DHT22;9458;50.942;5.074;2024-03-22T04:19:34;12.40;99.90
18658;DHT22;9458;50.942;5.074;2024-03-22T04:22:00;12.50;99.90
18658;DHT22;9458;50.942;5.074;2024-03-22T04:24:29;12.40;99.90
18658;DHT22;9458;50.942;5.074;2024-03-22T04:26:57;12.30;99.90
18658;DHT22;9458;50.942;5.074;2024-03-22T04:29:25;12.50;99.90
18658;DHT22;9458;50.942;5.074;2024-03-22T04:31:51;12.30;99.90
18658;DHT22;9458;50.942;5.074;2024-03-22T04:34:18;12.50;99.90
18658;DHT22;9458;50.942;5.074;2024-03-22T04:36:44;12.50;99.90
18658;DHT22;9458;50.942;5.074;2024-03-22T04:39:11;12.40;99.90
18658;DHT22;9458;50.942;5.074;2024-03-22T04:41:41;12.40;99.90
18658;DHT22;9458;50.942;5.074;2024-03-22T04:44:08;12.40;99.90
18658;DHT22;9458;50.942;5.074;2024-03-22T04:46:35;12.40;99.90
18658;DHT22;9458;50.942;5.074;2024-03-22T04:49:01;12.40;99.90
18658;DHT22;9458;50.942;5.074;2024-03-22T04:51:28;12.40;99.90
18658;DHT22;9458;50.942;5.074;2024-03-22T04:53:54;12.40;99.90
18658;DHT22;9458;50.942;5.074;2024-03-22T04:56:22;12.40;99.90
18658;DHT22;9458;50.942;5.074;2024-03-22T04:58:49;12.40;99.90
18658;DHT22;9458;50.942;5.074;2024-03-22T05:01:16;12.50;99.90
18658;DHT22;9458;50.942;5.074;2024-03-22T05:03:42;12.50;99.90
18658;DHT22;9458;50.942;5.074;2024-03-22T05:06:09;12.50;99.90
18658;DHT22;9458;50.942;5.074;2024-03-22T05:08:35;12.40;99.90
18658;DHT22;9458;50.942;5.074;2024-03-22T05:11:03;12.40;99.90
18658;DHT22;9458;50.942;5.074;2024-03-22T05:13:29;12.40;99.90
18658;DHT22;9458;50.942;5.074;2024-03-22T05:15:58;12.30;99.90
18658;DHT22;9458;50.942;5.074;2024-03-22T05:18:24;12.40;99.90
18658;DHT22;9458;50.942;5.074;2024-03-22T05:20:51;12.40;99.90
18658;DHT22;9458;50.942;5.074;2024-03-22T05:23:18;12.50;99.90
18658;DHT22;9458;50.942;5.074;2024-03-22T05:25:45;12.50;99.90
18658;DHT22;9458;50.942;5.074;2024-03-22T05:28:13;12.50;99.90
18658;DHT22;9458;50.942;5.074;2024-03-22T05:30:40;12.50;99.90
18658;DHT22;9458;50.942;5.074;2024-03-22T05:33:07;12.10;99.90
18658;DHT22;9458;50.942;5.074;2024-03-22T05:35:35;12.50;99.90
18658;DHT22;9458;50.942;5.074;2024-03-22T05:38:02;12.20;99.90
18658;DHT22;9458;50.942;5.074;2024-03-22T05:40:31;12.40;99.90
18658;DHT22;9458;50.942;5.074;2024-03-22T05:43:00;12.40;99.90
18658;DHT22;9458;50.942;5.074;2024-03-22T05:45:27;12.40;99.90
18658;DHT22;9458;50.942;5.074;2024-03-22T05:47:54;12.40;99.90
18658;DHT22;9458;50.942;5.074;2024-03-22T05:50:21;12.40;99.90
18658;DHT22;9458;50.942;5.074;2024-03-22T05:52:48;12.50;99.90
18658;DHT22;9458;50.942;5.074;2024-03-22T05:55:18;12.50;99.90
18658;DHT22;9458;50.942;5.074;2024-03-22T05:57:44;12.40;99.90
18658;DHT22;9458;50.942;5.074;2024-03-22T06:00:13;12.10;99.90
18658;DHT22;9458;50.942;5.074;2024-03-22T06:02:39;12.40;99.90
18658;DHT22;9458;50.942;5.074;2024-03-22T06:05:09;12.40;99.90
18658;DHT22;9458;50.942;5.074;2024-03-22T06:07:37;12.60;99.90
18658;DHT22;9458;50.942;5.074;2024-03-22T06:10:08;12.70;99.90
18658;DHT22;9458;50.942;5.074;2024-03-22T06:12:35;12.60;99.90
18658;DHT22;9458;50.942;5.074;2024-03-22T06:15:03;12.60;99.90
18658;DHT22;9458;50.942;5.074;2024-03-22T06:17:32;12.70;99.90
18658;DHT22;9458;50.942;5.074;2024-03-22T06:19:59;12.70;99.90
18658;DHT22;9458;50.942;5.074;2024-03-22T06:22:26;12.50;99.90
18658;DHT22;9458;50.942;5.074;2024-03-22T06:24:54;12.60;99.90
18658;DHT22;9458;50.942;5.074;2024-03-22T06:27:23;12.50;99.90
18658;DHT22;9458;50.942;5.074;2024-03-22T06:29:53;12.70;99.90
18658;DHT22;9458;50.942;5.074;2024-03-22T06:32:19;12.70;99.90
18658;DHT22;9458;50.942;5.074;2024-03-22T06:34:46;12.70;99.90
18658;DHT22;9458;50.942;5.074;2024-03-22T06:37:12;12.60;99.90
18658;DHT22;9458;50.942;5.074;2024-03-22T06:39:39;12.70;99.90
18658;DHT22;9458;50.942;5.074;2024-03-22T06:42:07;12.70;99.90
18658;DHT22;9458;50.942;5.074;2024-03-22T06:44:34;12.70;99.90
18658;DHT22;9458;50.942;5.074;2024-03-22T06:47:00;12.60;99.90
18658;DHT22;9458;50.942;5.074;2024-03-22T06:49:27;12.60;99.90
18658;DHT22;9458;50.942;5.074;2024-03-22T06:51:54;12.60;99.90
18658;DHT22;9458;50.942;5.074;2024-03-22T06:54:21;12.80;99.90
18658;DHT22;9458;50.942;5.074;2024-03-22T06:56:47;12.70;99.90
18658;DHT22;9458;50.942;5.074;2024-03-22T06:59:16;12.80;99.90
18658;DHT22;9458;50.942;5.074;2024-03-22T07:01:43;12.80;99.90
18658;DHT22;9458;50.942;5.074;2024-03-22T07:04:10;12.80;99.90
18658;DHT22;9458;50.942;5.074;2024-03-22T07:06:36;12.70;99.90
18658;DHT22;9458;50.942;5.074;2024-03-22T07:09:03;12.70;99.90
18658;DHT22;9458;50.942;5.074;2024-03-22T07:11:29;12.80;99.90
18658;DHT22;9458;50.942;5.074;2024-03-22T07:13:58;12.80;99.90
18658;DHT22;9458;50.942;5.074;2024-03-22T07:16:26;12.80;99.90
18658;DHT22;9458;50.942;5.074;2024-03-22T07:18:53;12.70;99.90
18658;DHT22;9458;50.942;5.074;2024-03-22T07:21:19;12.70;99.90
18658;DHT22;9458;50.942;5.074;2024-03-22T07:23:46;12.80;99.90
18658;DHT22;9458;50.942;5.074;2024-03-22T07:26:12;12.70;99.90
18658;DHT22;9458;50.942;5.074;2024-03-22T07:28:39;12.80;99.90
18658;DHT22;9458;50.942;5.074;2024-03-22T07:31:05;12.80;99.90
18658;DHT22;9458;50.942;5.074;2024-03-22T07:33:34;13.00;99.90
18658;DHT22;9458;50.942;5.074;2024-03-22T07:36:02;13.00;99.90
18658;DHT22;9458;50.942;5.074;2024-03-22T07:38:29;13.30;99.90
18658;DHT22;9458;50.942;5.074;2024-03-22T07:40:55;13.30;99.90
18658;DHT22;9458;50.942;5.074;2024-03-22T07:43:22;13.10;99.90
18658;DHT22;9458;50.942;5.074;2024-03-22T07:45:48;13.00;99.90
18658;DHT22;9458;50.942;5.074;2024-03-22T07:48:15;12.80;99.90
18658;DHT22;9458;50.942;5.074;2024-03-22T07:50:43;12.70;99.90
18658;DHT22;9458;50.942;5.074;2024-03-22T07:53:10;12.60;99.90
18658;DHT22;9458;50.942;5.074;2024-03-22T07:55:39;12.60;99.90
18658;DHT22;9458;50.942;5.074;2024-03-22T07:58:06;12.70;99.90
18658;DHT22;9458;50.942;5.074;2024-03-22T08:00:32;12.80;99.90
18658;DHT22;9458;50.942;5.074;2024-03-22T08:02:59;12.90;99.90
18658;DHT22;9458;50.942;5.074;2024-03-22T08:05:25;13.20;99.90
18658;DHT22;9458;50.942;5.074;2024-03-22T08:07:53;13.40;99.90
18658;DHT22;9458;50.942;5.074;2024-03-22T08:10:19;13.70;99.90
18658;DHT22;9458;50.942;5.074;2024-03-22T08:12:46;13.70;99.90
18658;DHT22;9458;50.942;5.074;2024-03-22T08:15:14;13.40;99.90
18658;DHT22;9458;50.942;5.074;2024-03-22T08:17:41;13.20;99.90
18658;DHT22;9458;50.942;5.074;2024-03-22T08:20:08;13.30;99.90
18658;DHT22;9458;50.942;5.074;2024-03-22T08:22:35;13.20;99.90
18658;DHT22;9458;50.942;5.074;2024-03-22T08:25:02;13.20;99.90
18658;DHT22;9458;50.942;5.074;2024-03-22T08:27:30;13.30;99.90
18658;DHT22;9458;50.942;5.074;2024-03-22T08:29:56;13.10;99.90
18658;DHT22;9458;50.942;5.074;2024-03-22T08:32:23;13.40;99.90
18658;DHT22;9458;50.942;5.074;2024-03-22T08:34:49;13.60;99.90
18658;DHT22;9458;50.942;5.074;2024-03-22T08:37:16;13.50;99.90
18658;DHT22;9458;50.942;5.074;2024-03-22T08:39:42;13.50;99.90
18658;DHT22;9458;50.942;5.074;2024-03-22T08:42:10;13.80;99.90
18658;DHT22;9458;50.942;5.074;2024-03-22T08:44:36;14.00;99.90
18658;DHT22;9458;50.942;5.074;2024-03-22T08:47:04;13.80;99.90
18658;DHT22;9458;50.942;5.074;2024-03-22T08:49:30;13.60;99.90
18658;DHT22;9458;50.942;5.074;2024-03-22T08:51:57;13.40;99.90
18658;DHT22;9458;50.942;5.074;2024-03-22T08:54:24;13.60;99.90
18658;DHT22;9458;50.942;5.074;2024-03-22T08:56:51;13.60;99.90
18658;DHT22;9458;50.942;5.074;2024-03-22T08:59:19;13.70;99.90
18658;DHT22;9458;50.942;5.074;2024-03-22T09:01:46;13.70;99.90
18658;DHT22;9458;50.942;5.074;2024-03-22T09:04:13;13.70;99.90
18658;DHT22;9458;50.942;5.074;2024-03-22T09:06:41;13.70;99.90
18658;DHT22;9458;50.942;5.074;2024-03-22T09:09:07;14.10;99.90
18658;DHT22;9458;50.942;5.074;2024-03-22T09:11:34;14.10;99.90
18658;DHT22;9458;50.942;5.074;2024-03-22T09:14:01;14.50;99.90
18658;DHT22;9458;50.942;5.074;2024-03-22T09:16:29;14.50;99.90
18658;DHT22;9458;50.942;5.074;2024-03-22T09:18:56;14.50;99.90
18658;DHT22;9458;50.942;5.074;2024-03-22T09:21:23;15.00;99.90
18658;DHT22;9458;50.942;5.074;2024-03-22T09:23:51;15.00;99.90
18658;DHT22;9458;50.942;5.074;2024-03-22T09:26:17;14.90;99.90
18658;DHT22;9458;50.942;5.074;2024-03-22T09:28:46;14.80;99.90
18658;DHT22;9458;50.942;5.074;2024-03-22T09:31:12;14.50;99.90
18658;DHT22;9458;50.942;5.074;2024-03-22T09:33:40;14.20;99.90
18658;DHT22;9458;50.942;5.074;2024-03-22T09:36:08;14.10;99.90
18658;DHT22;9458;50.942;5.074;2024-03-22T09:38:35;13.80;99.90
18658;DHT22;9458;50.942;5.074;2024-03-22T09:41:01;13.80;99.90
18658;DHT22;9458;50.942;5.074;2024-03-22T09:43:30;13.80;99.90
18658;DHT22;9458;50.942;5.074;2024-03-22T09:45:58;13.90;99.90
18658;DHT22;9458;50.942;5.074;2024-03-22T09:48:25;14.00;99.90
18658;DHT22;9458;50.942;5.074;2024-03-22T09:50:54;14.10;99.90
18658;DHT22;9458;50.942;5.074;2024-03-22T09:53:22;14.10;99.90
18658;DHT22;9458;50.942;5.074;2024-03-22T09:55:49;14.10;99.90
18658;DHT22;9458;50.942;5.074;2024-03-22T09:58:17;14.10;99.90
18658;DHT22;9458;50.942;5.074;2024-03-22T10:00:44;14.20;99.90
18658;DHT22;9458;50.942;5.074;2024-03-22T10:03:11;14.30;99.90
18658;DHT22;9458;50.942;5.074;2024-03-22T10:05:37;14.30;99.90
18658;DHT22;9458;50.942;5.074;2024-03-22T10:08:06;14.70;99.90
18658;DHT22;9458;50.942;5.074;2024-03-22T10:10:33;14.70;99.90
18658;DHT22;9458;50.942;5.074;2024-03-22T10:13:00;14.50;99.90
18658;DHT22;9458;50.942;5.074;2024-03-22T10:15:29;14.50;99.90
18658;DHT22;9458;50.942;5.074;2024-03-22T10:17:57;14.50;99.90
18658;DHT22;9458;50.942;5.074;2024-03-22T10:20:23;14.60;99.90
18658;DHT22;9458;50.942;5.074;2024-03-22T10:22:56;14.90;99.90
18658;DHT22;9458;50.942;5.074;2024-03-22T10:25:25;14.90;99.90
18658;DHT22;9458;50.942;5.074;2024-03-22T10:27:53;14.70;99.90
18658;DHT22;9458;50.942;5.074;2024-03-22T10:30:22;14.80;99.90
18658;DHT22;9458;50.942;5.074;2024-03-22T10:32:49;15.00;99.90
18658;DHT22;9458;50.942;5.074;2024-03-22T10:35:16;15.10;99.90
18658;DHT22;9458;50.942;5.074;2024-03-22T10:37:43;15.00;99.90
18658;DHT22;9458;50.942;5.074;2024-03-22T10:40:11;15.10;99.90
18658;DHT22;9458;50.942;5.074;2024-03-22T10:42:40;14.90;99.90
18658;DHT22;9458;50.942;5.074;2024-03-22T10:45:07;14.70;99.90
18658;DHT22;9458;50.942;5.074;2024-03-22T10:47:36;14.80;99.90
18658;DHT22;9458;50.942;5.074;2024-03-22T10:50:05;15.00;99.90
18658;DHT22;9458;50.942;5.074;2024-03-22T10:52:35;15.20;99.90
18658;DHT22;9458;50.942;5.074;2024-03-22T10:55:06;15.30;99.90
18658;DHT22;9458;50.942;5.074;2024-03-22T10:57:35;15.00;99.90
18658;DHT22;9458;50.942;5.074;2024-03-22T11:00:08;15.00;99.90
18658;DHT22;9458;50.942;5.074;2024-03-22T11:02:37;14.90;99.90
18658;DHT22;9458;50.942;5.074;2024-03-22T11:05:03;14.60;99.90
18658;DHT22;9458;50.942;5.074;2024-03-22T11:07:31;14.70;99.90
18658;DHT22;9458;50.942;5.074;2024-03-22T11:09:57;14.80;99.90
18658;DHT22;9458;50.942;5.074;2024-03-22T11:12:25;14.90;99.90
18658;DHT22;9458;50.942;5.074;2024-03-22T11:14:53;15.10;99.90
18658;DHT22;9458;50.942;5.074;2024-03-22T11:17:21;15.00;99.90
18658;DHT22;9458;50.942;5.074;2024-03-22T11:19:50;15.00;99.90
18658;DHT22;9458;50.942;5.074;2024-03-22T11:22:17;15.10;99.90
18658;DHT22;9458;50.942;5.074;2024-03-22T11:24:43;15.10;99.90
18658;DHT22;9458;50.942;5.074;2024-03-22T11:27:11;15.10;99.90
18658;DHT22;9458;50.942;5.074;2024-03-22T11:29:37;15.10;99.90
18658;DHT22;9458;50.942;5.074;2024-03-22T11:32:07;14.80;99.90
18658;DHT22;9458;50.942;5.074;2024-03-22T11:34:36;14.70;99.90
18658;DHT22;9458;50.942;5.074;2024-03-22T11:37:04;14.90;99.90
18658;DHT22;9458;50.942;5.074;2024-03-22T11:39:30;15.00;99.90
18658;DHT22;9458;50.942;5.074;2024-03-22T11:41:58;14.80;99.90
18658;DHT22;9458;50.942;5.074;2024-03-22T11:44:24;14.80;99.90
18658;DHT22;9458;50.942;5.074;2024-03-22T11:46:52;14.50;99.90
18658;DHT22;9458;50.942;5.074;2024-03-22T11:49:19;14.30;99.90
18658;DHT22;9458;50.942;5.074;2024-03-22T11:51:47;14.70;99.90
18658;DHT22;9458;50.942;5.074;2024-03-22T11:54:13;14.50;99.90
18658;DHT22;9458;50.942;5.074;2024-03-22T11:56:40;14.70;99.90
18658;DHT22;9458;50.942;5.074;2024-03-22T11:59:07;14.60;99.90
18658;DHT22;9458;50.942;5.074;2024-03-22T12:01:34;14.80;99.90
18658;DHT22;9458;50.942;5.074;2024-03-22T12:04:00;14.90;99.90
18658;DHT22;9458;50.942;5.074;2024-03-22T12:06:27;14.70;99.90
18658;DHT22;9458;50.942;5.074;2024-03-22T12:08:55;14.80;99.90
18658;DHT22;9458;50.942;5.074;2024-03-22T12:11:22;14.60;99.90
18658;DHT22;9458;50.942;5.074;2024-03-22T12:13:48;14.70;99.90
18658;DHT22;9458;50.942;5.074;2024-03-22T12:16:16;14.60;99.90
18658;DHT22;9458;50.942;5.074;2024-03-22T12:18:42;14.50;99.90
18658;DHT22;9458;50.942;5.074;2024-03-22T12:21:09;14.50;99.90
18658;DHT22;9458;50.942;5.074;2024-03-22T12:23:35;14.50;99.90
18658;DHT22;9458;50.942;5.074;2024-03-22T12:26:04;14.30;99.90
18658;DHT22;9458;50.942;5.074;2024-03-22T12:28:30;14.30;99.90
18658;DHT22;9458;50.942;5.074;2024-03-22T12:30:57;14.40;99.90
18658;DHT22;9458;50.942;5.074;2024-03-22T12:33:23;14.60;99.90
18658;DHT22;9458;50.942;5.074;2024-03-22T12:35:51;14.70;99.90
18658;DHT22;9458;50.942;5.074;2024-03-22T12:38:18;14.80;99.90
18658;DHT22;9458;50.942;5.074;2024-03-22T12:40:46;14.90;99.90
18658;DHT22;9458;50.942;5.074;2024-03-22T12:43:13;14.70;99.90
18658;DHT22;9458;50.942;5.074;2024-03-22T12:45:40;14.60;99.90
18658;DHT22;9458;50.942;5.074;2024-03-22T12:48:07;14.60;99.90
18658;DHT22;9458;50.942;5.074;2024-03-22T12:50:35;14.40;99.90
18658;DHT22;9458;50.942;5.074;2024-03-22T12:53:06;14.50;99.90
18658;DHT22;9458;50.942;5.074;2024-03-22T12:55:37;14.40;99.90
18658;DHT22;9458;50.942;5.074;2024-03-22T12:58:06;14.50;99.90
18658;DHT22;9458;50.942;5.074;2024-03-22T13:00:35;14.40;99.90
18658;DHT22;9458;50.942;5.074;2024-03-22T13:03:01;14.50;99.90
18658;DHT22;9458;50.942;5.074;2024-03-22T13:05:29;14.50;99.90
18658;DHT22;9458;50.942;5.074;2024-03-22T13:07:56;14.40;99.90
18658;DHT22;9458;50.942;5.074;2024-03-22T13:10:24;14.20;99.90
18658;DHT22;9458;50.942;5.074;2024-03-22T13:12:50;14.30;99.90
18658;DHT22;9458;50.942;5.074;2024-03-22T13:15:17;14.20;99.90
18658;DHT22;9458;50.942;5.074;2024-03-22T13:17:44;14.10;99.90
18658;DHT22;9458;50.942;5.074;2024-03-22T13:20:12;14.20;99.90
18658;DHT22;9458;50.942;5.074;2024-03-22T13:22:40;14.10;99.90
18658;DHT22;9458;50.942;5.074;2024-03-22T13:25:10;14.20;99.90
18658;DHT22;9458;50.942;5.074;2024-03-22T13:27:37;14.20;99.90
18658;DHT22;9458;50.942;5.074;2024-03-22T13:30:06;14.00;99.90
18658;DHT22;9458;50.942;5.074;2024-03-22T13:32:35;13.90;99.90
18658;DHT22;9458;50.942;5.074;2024-03-22T13:35:05;13.90;99.90
18658;DHT22;9458;50.942;5.074;2024-03-22T13:37:31;14.10;99.90
18658;DHT22;9458;50.942;5.074;2024-03-22T13:39:59;13.90;99.90
18658;DHT22;9458;50.942;5.074;2024-03-22T13:42:25;13.80;99.90
18658;DHT22;9458;50.942;5.074;2024-03-22T13:44:52;13.60;99.90
18658;DHT22;9458;50.942;5.074;2024-03-22T13:47:18;13.80;99.90
18658;DHT22;9458;50.942;5.074;2024-03-22T13:49:45;14.00;99.90
18658;DHT22;9458;50.942;5.074;2024-03-22T13:52:14;14.20;99.90
18658;DHT22;9458;50.942;5.074;2024-03-22T13:54:40;14.00;99.90
18658;DHT22;9458;50.942;5.074;2024-03-22T13:57:07;13.80;99.90
18658;DHT22;9458;50.942;5.074;2024-03-22T13:59:34;13.60;99.90
18658;DHT22;9458;50.942;5.074;2024-03-22T14:02:02;13.50;99.90
18658;DHT22;9458;50.942;5.074;2024-03-22T14:04:29;13.40;99.90
18658;DHT22;9458;50.942;5.074;2024-03-22T14:06:56;13.50;99.90
18658;DHT22;9458;50.942;5.074;2024-03-22T14:09:23;13.70;99.90
18658;DHT22;9458;50.942;5.074;2024-03-22T14:11:51;13.60;99.90
18658;DHT22;9458;50.942;5.074;2024-03-22T14:14:20;13.50;99.90
18658;DHT22;9458;50.942;5.074;2024-03-22T14:16:47;13.60;99.90
18658;DHT22;9458;50.942;5.074;2024-03-22T14:19:13;13.50;99.90
18658;DHT22;9458;50.942;5.074;2024-03-22T14:21:41;13.50;99.90
18658;DHT22;9458;50.942;5.074;2024-03-22T14:24:08;13.50;99.90
18658;DHT22;9458;50.942;5.074;2024-03-22T14:26:37;13.40;99.90
18658;DHT22;9458;50.942;5.074;2024-03-22T14:29:08;13.50;99.90
18658;DHT22;9458;50.942;5.074;2024-03-22T14:31:36;13.50;99.90
18658;DHT22;9458;50.942;5.074;2024-03-22T14:34:04;13.60;99.90
18658;DHT22;9458;50.942;5.074;2024-03-22T14:36:32;13.70;99.90
18658;DHT22;9458;50.942;5.074;2024-03-22T14:39:00;13.70;99.90
18658;DHT22;9458;50.942;5.074;2024-03-22T14:41:30;13.50;99.90
18658;DHT22;9458;50.942;5.074;2024-03-22T14:43:58;13.50;99.90
18658;DHT22;9458;50.942;5.074;2024-03-22T14:46:25;13.40;99.90
18658;DHT22;9458;50.942;5.074;2024-03-22T14:48:54;13.40;99.90
18658;DHT22;9458;50.942;5.074;2024-03-22T14:51:21;13.40;99.90
18658;DHT22;9458;50.942;5.074;2024-03-22T14:53:48;13.50;99.90
18658;DHT22;9458;50.942;5.074;2024-03-22T14:56:15;13.50;99.90
18658;DHT22;9458;50.942;5.074;2024-03-22T14:58:43;13.50;99.90
18658;DHT22;9458;50.942;5.074;2024-03-22T15:01:11;13.50;99.90
18658;DHT22;9458;50.942;5.074;2024-03-22T15:03:37;13.60;99.90
18658;DHT22;9458;50.942;5.074;2024-03-22T15:06:04;13.50;99.90
18658;DHT22;9458;50.942;5.074;2024-03-22T15:08:30;13.50;99.90
18658;DHT22;9458;50.942;5.074;2024-03-22T15:10:58;13.40;99.90
18658;DHT22;9458;50.942;5.074;2024-03-22T15:13:24;13.40;99.90
18658;DHT22;9458;50.942;5.074;2024-03-22T15:15:55;13.40;99.90
18658;DHT22;9458;50.942;5.074;2024-03-22T15:18:23;13.40;99.90
18658;DHT22;9458;50.942;5.074;2024-03-22T15:20:50;13.30;99.90
18658;DHT22;9458;50.942;5.074;2024-03-22T15:23:17;13.40;99.90
18658;DHT22;9458;50.942;5.074;2024-03-22T15:25:46;13.40;99.90
18658;DHT22;9458;50.942;5.074;2024-03-22T15:28:13;13.40;99.90
18658;DHT22;9458;50.942;5.074;2024-03-22T15:30:40;13.50;99.90
18658;DHT22;9458;50.942;5.074;2024-03-22T15:33:08;13.30;99.90
18658;DHT22;9458;50.942;5.074;2024-03-22T15:35:37;13.10;99.90
18658;DHT22;9458;50.942;5.074;2024-03-22T15:38:04;13.10;99.90
18658;DHT22;9458;50.942;5.074;2024-03-22T15:40:31;13.10;99.90
18658;DHT22;9458;50.942;5.074;2024-03-22T15:42:58;13.00;99.90
18658;DHT22;9458;50.942;5.074;2024-03-22T15:45:25;13.00;99.90